sensor_id;sensor_type;location;lat;lon;timestamp;P1;durP1;ratioP1;P2;durP2;ratioP2
15608;SDS011;64278;45.642;13.756;2023-02-01T00:00:19;7.35;;;6.75;;
15608;SDS011;64278;45.642;13.756;2023-02-01T00:02:45;8.35;;;7.40;;
15608;SDS011;64278;45.642;13.756;2023-02-01T00:05:11;7.95;;;7.18;;
15608;SDS011;64278;45.642;13.756;2023-02-01T00:07:37;7.68;;;7.07;;
15608;SDS011;64278;45.642;13.756;2023-02-01T00:10:03;7.00;;;6.40;;
15608;SDS011;64278;45.642;13.756;2023-02-01T00:12:31;7.47;;;6.85;;
15608;SDS011;64278;45.642;13.756;2023-02-01T00:14:56;7.50;;;6.80;;
15608;SDS011;64278;45.642;13.756;2023-02-01T00:17:22;7.72;;;7.03;;
15608;SDS011;64278;45.642;13.756;2023-02-01T00:19:48;7.80;;;7.10;;
15608;SDS011;64278;45.642;13.756;2023-02-01T00:22:13;7.40;;;6.80;;
15608;SDS011;64278;45.642;13.756;2023-02-01T00:24:39;7.97;;;7.28;;
15608;SDS011;64278;45.642;13.756;2023-02-01T00:27:05;7.70;;;7.05;;
15608;SDS011;64278;45.642;13.756;2023-02-01T00:29:31;7.50;;;6.90;;
15608;SDS011;64278;45.642;13.756;2023-02-01T00:31:56;7.53;;;6.93;;
15608;SDS011;64278;45.642;13.756;2023-02-01T00:34:22;8.20;;;7.50;;
15608;SDS011;64278;45.642;13.756;2023-02-01T00:36:48;7.13;;;6.53;;
15608;SDS011;64278;45.642;13.756;2023-02-01T00:39:14;7.22;;;6.63;;
15608;SDS011;64278;45.642;13.756;2023-02-01T00:41:40;6.97;;;6.38;;
15608;SDS011;64278;45.642;13.756;2023-02-01T00:44:05;6.10;;;5.60;;
15608;SDS011;64278;45.642;13.756;2023-02-01T00:46:31;7.45;;;6.85;;
15608;SDS011;64278;45.642;13.756;2023-02-01T00:48:57;6.97;;;6.47;;
15608;SDS011;64278;45.642;13.756;2023-02-01T00:51:24;7.20;;;6.50;;
15608;SDS011;64278;45.642;13.756;2023-02-01T00:53:51;7.05;;;6.43;;
15608;SDS011;64278;45.642;13.756;2023-02-01T00:56:17;6.53;;;5.93;;
15608;SDS011;64278;45.642;13.756;2023-02-01T00:58:43;6.78;;;6.20;;
15608;SDS011;64278;45.642;13.756;2023-02-01T01:01:09;6.90;;;6.30;;
15608;SDS011;64278;45.642;13.756;2023-02-01T01:03:41;6.50;;;6.00;;
15608;SDS011;64278;45.642;13.756;2023-02-01T01:06:10;6.22;;;5.72;;
15608;SDS011;64278;45.642;13.756;2023-02-01T01:08:38;6.25;;;5.70;;
15608;SDS011;64278;45.642;13.756;2023-02-01T01:11:24;6.60;;;6.00;;
15608;SDS011;64278;45.642;13.756;2023-02-01T01:13:52;6.55;;;6.05;;
15608;SDS011;64278;45.642;13.756;2023-02-01T01:16:19;6.90;;;6.30;;
15608;SDS011;64278;45.642;13.756;2023-02-01T01:18:46;6.00;;;5.50;;
15608;SDS011;64278;45.642;13.756;2023-02-01T01:21:13;6.65;;;6.05;;
15608;SDS011;64278;45.642;13.756;2023-02-01T01:23:39;6.30;;;5.80;;
15608;SDS011;64278;45.642;13.756;2023-02-01T01:26:09;5.88;;;5.45;;
15608;SDS011;64278;45.642;13.756;2023-02-01T01:28:40;5.85;;;5.45;;
15608;SDS011;64278;45.642;13.756;2023-02-01T01:31:10;6.28;;;5.72;;
15608;SDS011;64278;45.642;13.756;2023-02-01T01:33:36;5.95;;;5.43;;
15608;SDS011;64278;45.642;13.756;2023-02-01T01:36:03;5.75;;;5.25;;
15608;SDS011;64278;45.642;13.756;2023-02-01T01:38:30;5.97;;;5.47;;
15608;SDS011;64278;45.642;13.756;2023-02-01T01:40:56;5.55;;;5.05;;
15608;SDS011;64278;45.642;13.756;2023-02-01T01:43:22;6.30;;;5.78;;
15608;SDS011;64278;45.642;13.756;2023-02-01T01:45:48;5.75;;;5.25;;
15608;SDS011;64278;45.642;13.756;2023-02-01T01:48:16;7.13;;;6.45;;
15608;SDS011;64278;45.642;13.756;2023-02-01T01:50:58;5.82;;;5.32;;
15608;SDS011;64278;45.642;13.756;2023-02-01T01:53:28;6.05;;;5.50;;
15608;SDS011;64278;45.642;13.756;2023-02-01T01:55:58;5.97;;;5.47;;
15608;SDS011;64278;45.642;13.756;2023-02-01T01:58:26;5.18;;;4.78;;
15608;SDS011;64278;45.642;13.756;2023-02-01T02:00:54;6.25;;;5.75;;
15608;SDS011;64278;45.642;13.756;2023-02-01T02:03:27;4.93;;;4.50;;
15608;SDS011;64278;45.642;13.756;2023-02-01T02:05:59;5.28;;;4.88;;
15608;SDS011;64278;45.642;13.756;2023-02-01T02:08:27;5.57;;;5.15;;
15608;SDS011;64278;45.642;13.756;2023-02-01T02:10:53;5.82;;;5.30;;
15608;SDS011;64278;45.642;13.756;2023-02-01T02:16:05;5.28;;;4.80;;
15608;SDS011;64278;45.642;13.756;2023-02-01T02:18:37;6.07;;;5.57;;
15608;SDS011;64278;45.642;13.756;2023-02-01T02:21:10;5.43;;;4.93;;
15608;SDS011;64278;45.642;13.756;2023-02-01T02:39:57;4.78;;;4.38;;
15608;SDS011;64278;45.642;13.756;2023-02-01T02:42:31;4.88;;;4.47;;
15608;SDS011;64278;45.642;13.756;2023-02-01T02:45:44;4.93;;;4.53;;
15608;SDS011;64278;45.642;13.756;2023-02-01T02:48:42;4.57;;;4.10;;
15608;SDS011;64278;45.642;13.756;2023-02-01T02:54:20;4.85;;;4.45;;
15608;SDS011;64278;45.642;13.756;2023-02-01T02:57:08;4.90;;;4.45;;
15608;SDS011;64278;45.642;13.756;2023-02-01T02:59:56;5.47;;;4.75;;
15608;SDS011;64278;45.642;13.756;2023-02-01T03:02:44;4.70;;;4.30;;
15608;SDS011;64278;45.642;13.756;2023-02-01T03:05:36;5.50;;;5.00;;
15608;SDS011;64278;45.642;13.756;2023-02-01T03:13:24;5.35;;;4.50;;
15608;SDS011;64278;45.642;13.756;2023-02-01T03:21:13;5.07;;;4.60;;
15608;SDS011;64278;45.642;13.756;2023-02-01T03:23:43;4.65;;;4.35;;
15608;SDS011;64278;45.642;13.756;2023-02-01T03:26:11;4.30;;;3.90;;
15608;SDS011;64278;45.642;13.756;2023-02-01T03:28:44;4.47;;;4.07;;
15608;SDS011;64278;45.642;13.756;2023-02-01T03:31:17;4.68;;;4.30;;
15608;SDS011;64278;45.642;13.756;2023-02-01T03:33:43;4.45;;;4.10;;
15608;SDS011;64278;45.642;13.756;2023-02-01T03:36:15;4.55;;;4.15;;
15608;SDS011;64278;45.642;13.756;2023-02-01T03:41:40;4.85;;;4.45;;
15608;SDS011;64278;45.642;13.756;2023-02-01T03:44:23;4.55;;;4.18;;
15608;SDS011;64278;45.642;13.756;2023-02-01T03:46:56;4.93;;;4.53;;
15608;SDS011;64278;45.642;13.756;2023-02-01T03:49:29;4.88;;;4.47;;
15608;SDS011;64278;45.642;13.756;2023-02-01T03:51:58;4.38;;;3.97;;
15608;SDS011;64278;45.642;13.756;2023-02-01T03:54:25;4.57;;;4.18;;
15608;SDS011;64278;45.642;13.756;2023-02-01T03:56:53;4.10;;;3.70;;
15608;SDS011;64278;45.642;13.756;2023-02-01T03:59:21;4.63;;;4.22;;
15608;SDS011;64278;45.642;13.756;2023-02-01T04:01:47;4.10;;;3.80;;
15608;SDS011;64278;45.642;13.756;2023-02-01T04:04:12;4.53;;;4.13;;
15608;SDS011;64278;45.642;13.756;2023-02-01T04:06:48;4.93;;;4.43;;
15608;SDS011;64278;45.642;13.756;2023-02-01T04:09:14;4.50;;;4.10;;
15608;SDS011;64278;45.642;13.756;2023-02-01T04:11:40;4.43;;;4.03;;
15608;SDS011;64278;45.642;13.756;2023-02-01T04:14:06;4.88;;;4.47;;
15608;SDS011;64278;45.642;13.756;2023-02-01T04:16:32;4.43;;;4.03;;
15608;SDS011;64278;45.642;13.756;2023-02-01T04:18:58;4.43;;;3.92;;
15608;SDS011;64278;45.642;13.756;2023-02-01T04:21:27;4.00;;;3.70;;
15608;SDS011;64278;45.642;13.756;2023-02-01T04:23:53;4.13;;;3.72;;
15608;SDS011;64278;45.642;13.756;2023-02-01T04:26:19;3.80;;;3.50;;
15608;SDS011;64278;45.642;13.756;2023-02-01T04:28:45;4.20;;;3.90;;
15608;SDS011;64278;45.642;13.756;2023-02-01T04:31:14;4.13;;;3.72;;
15608;SDS011;64278;45.642;13.756;2023-02-01T04:33:40;4.93;;;4.50;;
15608;SDS011;64278;45.642;13.756;2023-02-01T04:36:06;4.75;;;4.25;;
15608;SDS011;64278;45.642;13.756;2023-02-01T04:38:32;4.55;;;4.15;;
15608;SDS011;64278;45.642;13.756;2023-02-01T04:40:58;4.57;;;4.18;;
15608;SDS011;64278;45.642;13.756;2023-02-01T04:43:24;4.30;;;3.90;;
15608;SDS011;64278;45.642;13.756;2023-02-01T04:45:50;4.35;;;3.95;;
15608;SDS011;64278;45.642;13.756;2023-02-01T04:48:16;4.40;;;4.00;;
15608;SDS011;64278;45.642;13.756;2023-02-01T04:50:43;4.07;;;3.72;;
15608;SDS011;64278;45.642;13.756;2023-02-01T04:53:16;4.57;;;4.20;;
15608;SDS011;64278;45.642;13.756;2023-02-01T04:55:42;4.15;;;3.85;;
15608;SDS011;64278;45.642;13.756;2023-02-01T04:58:09;4.63;;;4.20;;
15608;SDS011;64278;45.642;13.756;2023-02-01T05:00:35;4.85;;;4.45;;
15608;SDS011;64278;45.642;13.756;2023-02-01T05:03:01;4.03;;;3.72;;
15608;SDS011;64278;45.642;13.756;2023-02-01T05:05:27;4.47;;;4.05;;
15608;SDS011;64278;45.642;13.756;2023-02-01T05:07:53;4.20;;;3.90;;
15608;SDS011;64278;45.642;13.756;2023-02-01T05:10:19;4.15;;;3.85;;
15608;SDS011;64278;45.642;13.756;2023-02-01T05:12:45;4.80;;;4.30;;
15608;SDS011;64278;45.642;13.756;2023-02-01T05:15:31;3.75;;;3.45;;
15608;SDS011;64278;45.642;13.756;2023-02-01T05:17:57;4.15;;;3.85;;
15608;SDS011;64278;45.642;13.756;2023-02-01T05:20:22;4.95;;;4.30;;
15608;SDS011;64278;45.642;13.756;2023-02-01T05:22:49;4.03;;;3.65;;
15608;SDS011;64278;45.642;13.756;2023-02-01T05:25:14;3.80;;;3.50;;
15608;SDS011;64278;45.642;13.756;2023-02-01T05:27:40;4.20;;;3.90;;
15608;SDS011;64278;45.642;13.756;2023-02-01T05:30:06;5.40;;;4.15;;
15608;SDS011;64278;45.642;13.756;2023-02-01T05:32:32;4.45;;;4.05;;
15608;SDS011;64278;45.642;13.756;2023-02-01T05:34:58;4.10;;;3.70;;
15608;SDS011;64278;45.642;13.756;2023-02-01T05:37:24;4.65;;;4.25;;
15608;SDS011;64278;45.642;13.756;2023-02-01T05:39:49;4.82;;;4.43;;
15608;SDS011;64278;45.642;13.756;2023-02-01T05:42:15;4.68;;;3.88;;
15608;SDS011;64278;45.642;13.756;2023-02-01T05:44:41;3.92;;;3.63;;
15608;SDS011;64278;45.642;13.756;2023-02-01T05:47:07;4.82;;;4.43;;
15608;SDS011;64278;45.642;13.756;2023-02-01T05:49:33;4.85;;;4.45;;
15608;SDS011;64278;45.642;13.756;2023-02-01T05:51:58;4.60;;;4.20;;
15608;SDS011;64278;45.642;13.756;2023-02-01T05:54:24;5.55;;;4.53;;
15608;SDS011;64278;45.642;13.756;2023-02-01T05:56:50;5.47;;;4.70;;
15608;SDS011;64278;45.642;13.756;2023-02-01T05:59:15;5.10;;;4.65;;
15608;SDS011;64278;45.642;13.756;2023-02-01T06:01:41;5.45;;;4.93;;
15608;SDS011;64278;45.642;13.756;2023-02-01T06:04:07;6.05;;;5.35;;
15608;SDS011;64278;45.642;13.756;2023-02-01T06:06:32;8.10;;;5.22;;
15608;SDS011;64278;45.642;13.756;2023-02-01T06:08:59;6.22;;;5.53;;
15608;SDS011;64278;45.642;13.756;2023-02-01T06:11:25;7.75;;;5.47;;
15608;SDS011;64278;45.642;13.756;2023-02-01T06:13:50;5.88;;;5.28;;
15608;SDS011;64278;45.642;13.756;2023-02-01T06:16:16;5.95;;;5.25;;
15608;SDS011;64278;45.642;13.756;2023-02-01T06:18:42;8.43;;;6.50;;
15608;SDS011;64278;45.642;13.756;2023-02-01T06:21:08;8.73;;;6.60;;
15608;SDS011;64278;45.642;13.756;2023-02-01T06:23:34;8.25;;;6.60;;
15608;SDS011;64278;45.642;13.756;2023-02-01T06:26:03;8.32;;;6.75;;
15608;SDS011;64278;45.642;13.756;2023-02-01T06:28:30;9.10;;;7.13;;
15608;SDS011;64278;45.642;13.756;2023-02-01T06:30:57;13.63;;;9.02;;
15608;SDS011;64278;45.642;13.756;2023-02-01T06:33:27;22.30;;;11.65;;
15608;SDS011;64278;45.642;13.756;2023-02-01T06:35:56;24.25;;;13.80;;
15608;SDS011;64278;45.642;13.756;2023-02-01T06:38:23;26.38;;;15.82;;
15608;SDS011;64278;45.642;13.756;2023-02-01T06:40:53;22.48;;;14.57;;
15608;SDS011;64278;45.642;13.756;2023-02-01T06:43:19;25.95;;;15.30;;
15608;SDS011;64278;45.642;13.756;2023-02-01T06:45:45;24.88;;;16.20;;
15608;SDS011;64278;45.642;13.756;2023-02-01T06:48:11;31.30;;;16.23;;
15608;SDS011;64278;45.642;13.756;2023-02-01T06:50:37;28.00;;;15.30;;
15608;SDS011;64278;45.642;13.756;2023-02-01T06:53:02;27.30;;;16.02;;
15608;SDS011;64278;45.642;13.756;2023-02-01T06:55:28;28.95;;;16.15;;
15608;SDS011;64278;45.642;13.756;2023-02-01T06:57:54;30.92;;;16.52;;
15608;SDS011;64278;45.642;13.756;2023-02-01T07:00:20;31.17;;;16.40;;
15608;SDS011;64278;45.642;13.756;2023-02-01T07:02:50;29.92;;;18.20;;
15608;SDS011;64278;45.642;13.756;2023-02-01T07:05:16;27.15;;;16.45;;
15608;SDS011;64278;45.642;13.756;2023-02-01T07:07:42;29.92;;;16.90;;
15608;SDS011;64278;45.642;13.756;2023-02-01T07:10:08;30.35;;;15.00;;
15608;SDS011;64278;45.642;13.756;2023-02-01T07:12:34;25.15;;;16.60;;
15608;SDS011;64278;45.642;13.756;2023-02-01T07:15:00;24.35;;;16.27;;
15608;SDS011;64278;45.642;13.756;2023-02-01T07:17:27;29.35;;;16.02;;
15608;SDS011;64278;45.642;13.756;2023-02-01T07:19:54;27.60;;;15.52;;
15608;SDS011;64278;45.642;13.756;2023-02-01T07:22:26;28.42;;;16.52;;
15608;SDS011;64278;45.642;13.756;2023-02-01T07:24:52;23.95;;;16.17;;
15608;SDS011;64278;45.642;13.756;2023-02-01T07:27:18;27.80;;;15.55;;
15608;SDS011;64278;45.642;13.756;2023-02-01T07:29:44;27.42;;;15.38;;
15608;SDS011;64278;45.642;13.756;2023-02-01T07:32:10;23.60;;;14.98;;
15608;SDS011;64278;45.642;13.756;2023-02-01T07:34:36;25.42;;;15.77;;
15608;SDS011;64278;45.642;13.756;2023-02-01T07:37:01;28.95;;;16.92;;
15608;SDS011;64278;45.642;13.756;2023-02-01T07:39:27;23.67;;;18.10;;
15608;SDS011;64278;45.642;13.756;2023-02-01T07:41:53;19.52;;;16.13;;
15608;SDS011;64278;45.642;13.756;2023-02-01T07:44:19;19.63;;;15.15;;
15608;SDS011;64278;45.642;13.756;2023-02-01T07:46:47;21.95;;;14.68;;
15608;SDS011;64278;45.642;13.756;2023-02-01T07:49:13;18.13;;;13.52;;
15608;SDS011;64278;45.642;13.756;2023-02-01T07:51:39;19.75;;;13.95;;
15608;SDS011;64278;45.642;13.756;2023-02-01T07:54:05;18.80;;;13.52;;
15608;SDS011;64278;45.642;13.756;2023-02-01T07:56:30;18.13;;;13.48;;
15608;SDS011;64278;45.642;13.756;2023-02-01T07:58:56;16.83;;;12.85;;
15608;SDS011;64278;45.642;13.756;2023-02-01T08:01:25;15.55;;;11.50;;
15608;SDS011;64278;45.642;13.756;2023-02-01T08:03:53;16.08;;;11.20;;
15608;SDS011;64278;45.642;13.756;2023-02-01T08:06:20;15.02;;;11.10;;
15608;SDS011;64278;45.642;13.756;2023-02-01T08:08:47;13.43;;;11.13;;
15608;SDS011;64278;45.642;13.756;2023-02-01T08:11:14;16.17;;;10.70;;
15608;SDS011;64278;45.642;13.756;2023-02-01T08:13:40;15.40;;;10.90;;
15608;SDS011;64278;45.642;13.756;2023-02-01T08:16:07;14.20;;;10.70;;
15608;SDS011;64278;45.642;13.756;2023-02-01T08:18:34;15.25;;;10.73;;
15608;SDS011;64278;45.642;13.756;2023-02-01T08:21:10;12.57;;;10.13;;
15608;SDS011;64278;45.642;13.756;2023-02-01T08:23:40;13.32;;;9.93;;
15608;SDS011;64278;45.642;13.756;2023-02-01T08:26:08;12.75;;;10.32;;
15608;SDS011;64278;45.642;13.756;2023-02-01T08:28:34;13.50;;;11.68;;
15608;SDS011;64278;45.642;13.756;2023-02-01T08:31:03;14.00;;;10.43;;
15608;SDS011;64278;45.642;13.756;2023-02-01T08:33:32;13.15;;;10.10;;
15608;SDS011;64278;45.642;13.756;2023-02-01T08:36:00;12.75;;;9.68;;
15608;SDS011;64278;45.642;13.756;2023-02-01T08:38:27;15.98;;;11.00;;
15608;SDS011;64278;45.642;13.756;2023-02-01T08:40:52;13.63;;;10.20;;
15608;SDS011;64278;45.642;13.756;2023-02-01T08:43:18;15.32;;;10.15;;
15608;SDS011;64278;45.642;13.756;2023-02-01T08:45:44;13.60;;;9.80;;
15608;SDS011;64278;45.642;13.756;2023-02-01T08:48:10;13.80;;;9.75;;
15608;SDS011;64278;45.642;13.756;2023-02-01T08:50:35;12.73;;;9.65;;
15608;SDS011;64278;45.642;13.756;2023-02-01T08:53:01;10.40;;;9.10;;
15608;SDS011;64278;45.642;13.756;2023-02-01T08:55:26;13.60;;;10.00;;
15608;SDS011;64278;45.642;13.756;2023-02-01T08:57:52;15.95;;;9.82;;
15608;SDS011;64278;45.642;13.756;2023-02-01T09:00:18;16.20;;;10.23;;
15608;SDS011;64278;45.642;13.756;2023-02-01T09:02:44;14.77;;;9.23;;
15608;SDS011;64278;45.642;13.756;2023-02-01T09:05:10;13.32;;;9.18;;
15608;SDS011;64278;45.642;13.756;2023-02-01T09:07:36;11.57;;;9.40;;
15608;SDS011;64278;45.642;13.756;2023-02-01T09:10:03;14.00;;;9.35;;
15608;SDS011;64278;45.642;13.756;2023-02-01T09:12:29;12.75;;;9.48;;
15608;SDS011;64278;45.642;13.756;2023-02-01T09:14:56;12.90;;;9.15;;
15608;SDS011;64278;45.642;13.756;2023-02-01T09:17:24;16.83;;;9.32;;
15608;SDS011;64278;45.642;13.756;2023-02-01T09:19:51;12.07;;;8.77;;
15608;SDS011;64278;45.642;13.756;2023-02-01T09:22:17;11.90;;;9.15;;
15608;SDS011;64278;45.642;13.756;2023-02-01T09:24:42;12.57;;;9.15;;
15608;SDS011;64278;45.642;13.756;2023-02-01T09:27:08;10.75;;;9.55;;
15608;SDS011;64278;45.642;13.756;2023-02-01T09:29:34;12.13;;;9.05;;
15608;SDS011;64278;45.642;13.756;2023-02-01T09:32:00;10.50;;;8.63;;
15608;SDS011;64278;45.642;13.756;2023-02-01T09:34:26;12.00;;;8.95;;
15608;SDS011;64278;45.642;13.756;2023-02-01T09:36:51;12.68;;;9.77;;
15608;SDS011;64278;45.642;13.756;2023-02-01T09:39:17;12.25;;;10.02;;
15608;SDS011;64278;45.642;13.756;2023-02-01T09:47:04;11.38;;;8.77;;
15608;SDS011;64278;45.642;13.756;2023-02-01T09:58:14;13.38;;;9.25;;
15608;SDS011;64278;45.642;13.756;2023-02-01T10:01:13;9.25;;;8.27;;
15608;SDS011;64278;45.642;13.756;2023-02-01T10:03:44;10.05;;;8.40;;
15608;SDS011;64278;45.642;13.756;2023-02-01T10:11:35;11.60;;;7.90;;
15608;SDS011;64278;45.642;13.756;2023-02-01T10:28:04;9.52;;;8.52;;
15608;SDS011;64278;45.642;13.756;2023-02-01T10:30:41;8.27;;;7.40;;
15608;SDS011;64278;45.642;13.756;2023-02-01T10:33:27;10.48;;;8.07;;
15608;SDS011;64278;45.642;13.756;2023-02-01T10:36:00;9.95;;;8.70;;
15608;SDS011;64278;45.642;13.756;2023-02-01T10:38:30;10.13;;;8.20;;
15608;SDS011;64278;45.642;13.756;2023-02-01T10:41:01;9.82;;;8.82;;
15608;SDS011;64278;45.642;13.756;2023-02-01T10:43:32;9.55;;;8.25;;
15608;SDS011;64278;45.642;13.756;2023-02-01T10:45:59;11.45;;;8.02;;
15608;SDS011;64278;45.642;13.756;2023-02-01T10:48:24;13.75;;;9.82;;
15608;SDS011;64278;45.642;13.756;2023-02-01T10:50:54;13.57;;;9.52;;
15608;SDS011;64278;45.642;13.756;2023-02-01T10:53:36;13.35;;;9.82;;
15608;SDS011;64278;45.642;13.756;2023-02-01T10:56:22;11.82;;;9.10;;
15608;SDS011;64278;45.642;13.756;2023-02-01T10:58:49;12.23;;;8.80;;
15608;SDS011;64278;45.642;13.756;2023-02-01T11:01:20;10.43;;;9.38;;
15608;SDS011;64278;45.642;13.756;2023-02-01T11:06:31;10.25;;;8.50;;
15608;SDS011;64278;45.642;13.756;2023-02-01T11:09:22;11.63;;;10.07;;
15608;SDS011;64278;45.642;13.756;2023-02-01T11:16:52;12.93;;;9.65;;
15608;SDS011;64278;45.642;13.756;2023-02-01T11:19:19;11.65;;;10.25;;
15608;SDS011;64278;45.642;13.756;2023-02-01T11:21:48;12.65;;;9.80;;
15608;SDS011;64278;45.642;13.756;2023-02-01T11:24:29;12.90;;;9.52;;
15608;SDS011;64278;45.642;13.756;2023-02-01T11:26:59;10.88;;;9.45;;
15608;SDS011;64278;45.642;13.756;2023-02-01T11:29:37;15.02;;;10.50;;
15608;SDS011;64278;45.642;13.756;2023-02-01T11:32:06;11.10;;;9.77;;
15608;SDS011;64278;45.642;13.756;2023-02-01T11:34:37;12.20;;;10.50;;
15608;SDS011;64278;45.642;13.756;2023-02-01T11:37:03;11.00;;;9.88;;
15608;SDS011;64278;45.642;13.756;2023-02-01T11:39:33;10.25;;;9.25;;
15608;SDS011;64278;45.642;13.756;2023-02-01T11:42:12;10.80;;;9.70;;
15608;SDS011;64278;45.642;13.756;2023-02-01T11:44:43;11.07;;;9.70;;
15608;SDS011;64278;45.642;13.756;2023-02-01T11:47:18;12.00;;;10.52;;
15608;SDS011;64278;45.642;13.756;2023-02-01T11:50:05;10.23;;;9.20;;
15608;SDS011;64278;45.642;13.756;2023-02-01T12:05:59;11.02;;;9.77;;
15608;SDS011;64278;45.642;13.756;2023-02-01T12:14:02;12.40;;;10.15;;
15608;SDS011;64278;45.642;13.756;2023-02-01T12:19:39;12.35;;;10.88;;
15608;SDS011;64278;45.642;13.756;2023-02-01T12:33:38;12.23;;;10.90;;
15608;SDS011;64278;45.642;13.756;2023-02-01T12:39:09;10.93;;;9.20;;
15608;SDS011;64278;45.642;13.756;2023-02-01T12:44:26;12.63;;;9.23;;
15608;SDS011;64278;45.642;13.756;2023-02-01T12:50:25;10.63;;;9.30;;
15608;SDS011;64278;45.642;13.756;2023-02-01T12:53:19;11.02;;;9.95;;
15608;SDS011;64278;45.642;13.756;2023-02-01T12:55:55;10.98;;;9.32;;
15608;SDS011;64278;45.642;13.756;2023-02-01T13:01:35;9.75;;;8.52;;
15608;SDS011;64278;45.642;13.756;2023-02-01T13:04:10;10.13;;;8.23;;
15608;SDS011;64278;45.642;13.756;2023-02-01T13:06:45;9.88;;;8.85;;
15608;SDS011;64278;45.642;13.756;2023-02-01T13:12:22;11.40;;;9.32;;
15608;SDS011;64278;45.642;13.756;2023-02-01T13:15:05;12.93;;;9.48;;
15608;SDS011;64278;45.642;13.756;2023-02-01T13:17:41;9.93;;;8.90;;
15608;SDS011;64278;45.642;13.756;2023-02-01T13:20:28;11.00;;;9.57;;
15608;SDS011;64278;45.642;13.756;2023-02-01T13:23:11;10.13;;;9.13;;
15608;SDS011;64278;45.642;13.756;2023-02-01T13:25:51;11.55;;;9.80;;
15608;SDS011;64278;45.642;13.756;2023-02-01T13:41:54;10.60;;;9.50;;
15608;SDS011;64278;45.642;13.756;2023-02-01T13:44:28;10.30;;;9.32;;
15608;SDS011;64278;45.642;13.756;2023-02-01T13:47:00;11.00;;;8.93;;
15608;SDS011;64278;45.642;13.756;2023-02-01T13:49:30;10.23;;;8.93;;
15608;SDS011;64278;45.642;13.756;2023-02-01T13:52:02;10.85;;;9.82;;
15608;SDS011;64278;45.642;13.756;2023-02-01T13:54:36;9.57;;;8.60;;
15608;SDS011;64278;45.642;13.756;2023-02-01T13:57:04;9.85;;;8.50;;
15608;SDS011;64278;45.642;13.756;2023-02-01T14:02:35;9.45;;;8.52;;
15608;SDS011;64278;45.642;13.756;2023-02-01T14:05:08;9.63;;;8.63;;
15608;SDS011;64278;45.642;13.756;2023-02-01T14:07:36;9.70;;;8.77;;
15608;SDS011;64278;45.642;13.756;2023-02-01T14:23:44;10.70;;;9.60;;
15608;SDS011;64278;45.642;13.756;2023-02-01T14:26:14;11.02;;;9.80;;
15608;SDS011;64278;45.642;13.756;2023-02-01T14:28:51;11.30;;;10.13;;
15608;SDS011;64278;45.642;13.756;2023-02-01T14:31:40;11.55;;;10.15;;
15608;SDS011;64278;45.642;13.756;2023-02-01T14:34:17;10.60;;;9.60;;
15608;SDS011;64278;45.642;13.756;2023-02-01T14:37:08;10.93;;;9.85;;
15608;SDS011;64278;45.642;13.756;2023-02-01T14:44:50;10.70;;;9.63;;
15608;SDS011;64278;45.642;13.756;2023-02-01T14:52:50;10.32;;;9.32;;
15608;SDS011;64278;45.642;13.756;2023-02-01T15:03:51;11.63;;;10.43;;
15608;SDS011;64278;45.642;13.756;2023-02-01T15:06:36;11.43;;;10.30;;
15608;SDS011;64278;45.642;13.756;2023-02-01T15:09:28;11.40;;;10.23;;
15608;SDS011;64278;45.642;13.756;2023-02-01T15:20:00;12.25;;;10.85;;
15608;SDS011;64278;45.642;13.756;2023-02-01T15:22:37;11.48;;;10.40;;
15608;SDS011;64278;45.642;13.756;2023-02-01T15:25:03;11.73;;;10.70;;
15608;SDS011;64278;45.642;13.756;2023-02-01T15:27:29;12.27;;;11.15;;
15608;SDS011;64278;45.642;13.756;2023-02-01T15:30:12;12.20;;;11.00;;
15608;SDS011;64278;45.642;13.756;2023-02-01T15:32:43;11.90;;;10.80;;
15608;SDS011;64278;45.642;13.756;2023-02-01T15:40:56;11.95;;;10.82;;
15608;SDS011;64278;45.642;13.756;2023-02-01T15:43:32;13.27;;;12.07;;
15608;SDS011;64278;45.642;13.756;2023-02-01T15:46:01;12.05;;;10.93;;
15608;SDS011;64278;45.642;13.756;2023-02-01T15:48:52;11.55;;;10.55;;
15608;SDS011;64278;45.642;13.756;2023-02-01T15:51:20;12.60;;;11.50;;
15608;SDS011;64278;45.642;13.756;2023-02-01T15:53:52;11.52;;;10.43;;
15608;SDS011;64278;45.642;13.756;2023-02-01T15:56:27;12.18;;;11.07;;
15608;SDS011;64278;45.642;13.756;2023-02-01T15:58:59;11.88;;;10.77;;
15608;SDS011;64278;45.642;13.756;2023-02-01T16:01:26;12.30;;;11.20;;
15608;SDS011;64278;45.642;13.756;2023-02-01T16:06:46;12.50;;;11.30;;
15608;SDS011;64278;45.642;13.756;2023-02-01T16:09:14;12.95;;;11.80;;
15608;SDS011;64278;45.642;13.756;2023-02-01T16:11:47;11.85;;;10.70;;
15608;SDS011;64278;45.642;13.756;2023-02-01T16:14:27;11.93;;;10.80;;
15608;SDS011;64278;45.642;13.756;2023-02-01T16:16:54;12.73;;;11.63;;
15608;SDS011;64278;45.642;13.756;2023-02-01T16:19:21;12.38;;;11.18;;
15608;SDS011;64278;45.642;13.756;2023-02-01T16:21:50;12.30;;;11.27;;
15608;SDS011;64278;45.642;13.756;2023-02-01T16:24:15;12.20;;;11.10;;
15608;SDS011;64278;45.642;13.756;2023-02-01T16:26:41;12.82;;;11.73;;
15608;SDS011;64278;45.642;13.756;2023-02-01T16:29:08;11.95;;;10.85;;
15608;SDS011;64278;45.642;13.756;2023-02-01T16:31:35;11.73;;;10.73;;
15608;SDS011;64278;45.642;13.756;2023-02-01T16:34:02;12.43;;;11.23;;
15608;SDS011;64278;45.642;13.756;2023-02-01T16:36:30;14.68;;;12.77;;
15608;SDS011;64278;45.642;13.756;2023-02-01T16:38:56;12.07;;;10.93;;
15608;SDS011;64278;45.642;13.756;2023-02-01T16:41:23;11.95;;;10.88;;
15608;SDS011;64278;45.642;13.756;2023-02-01T16:43:50;12.82;;;11.77;;
15608;SDS011;64278;45.642;13.756;2023-02-01T16:46:18;12.50;;;11.40;;
15608;SDS011;64278;45.642;13.756;2023-02-01T16:48:54;12.02;;;10.95;;
15608;SDS011;64278;45.642;13.756;2023-02-01T16:51:22;11.98;;;10.88;;
15608;SDS011;64278;45.642;13.756;2023-02-01T16:53:53;12.73;;;11.52;;
15608;SDS011;64278;45.642;13.756;2023-02-01T16:56:24;13.13;;;11.82;;
15608;SDS011;64278;45.642;13.756;2023-02-01T16:58:53;12.23;;;11.02;;
15608;SDS011;64278;45.642;13.756;2023-02-01T17:01:19;14.13;;;12.73;;
15608;SDS011;64278;45.642;13.756;2023-02-01T17:03:45;14.68;;;12.50;;
15608;SDS011;64278;45.642;13.756;2023-02-01T17:06:13;12.95;;;11.75;;
15608;SDS011;64278;45.642;13.756;2023-02-01T17:08:42;13.60;;;12.15;;
15608;SDS011;64278;45.642;13.756;2023-02-01T17:11:10;13.63;;;12.30;;
15608;SDS011;64278;45.642;13.756;2023-02-01T17:13:38;12.68;;;11.43;;
15608;SDS011;64278;45.642;13.756;2023-02-01T17:16:09;12.55;;;11.40;;
15608;SDS011;64278;45.642;13.756;2023-02-01T17:18:46;12.48;;;11.27;;
15608;SDS011;64278;45.642;13.756;2023-02-01T17:21:16;11.95;;;10.90;;
15608;SDS011;64278;45.642;13.756;2023-02-01T17:23:42;12.40;;;11.20;;
15608;SDS011;64278;45.642;13.756;2023-02-01T17:26:10;13.23;;;11.98;;
15608;SDS011;64278;45.642;13.756;2023-02-01T17:28:36;12.05;;;10.93;;
15608;SDS011;64278;45.642;13.756;2023-02-01T17:31:02;13.27;;;11.98;;
15608;SDS011;64278;45.642;13.756;2023-02-01T17:33:33;12.80;;;11.60;;
15608;SDS011;64278;45.642;13.756;2023-02-01T17:36:00;13.13;;;11.90;;
15608;SDS011;64278;45.642;13.756;2023-02-01T17:38:26;12.88;;;11.68;;
15608;SDS011;64278;45.642;13.756;2023-02-01T17:40:52;13.00;;;11.80;;
15608;SDS011;64278;45.642;13.756;2023-02-01T17:43:20;13.43;;;12.25;;
15608;SDS011;64278;45.642;13.756;2023-02-01T17:46:03;13.30;;;12.10;;
15608;SDS011;64278;45.642;13.756;2023-02-01T17:48:30;12.70;;;11.60;;